sensor_id;sensor_type;location;lat;lon;timestamp;P1;durP1;ratioP1;P2;durP2;ratioP2
19343;SDS011;9808;52.402;16.678;2024-03-06T00:02:23;61.67;;;27.53;;
19343;SDS011;9808;52.402;16.678;2024-03-06T00:04:50;56.27;;;25.17;;
19343;SDS011;9808;52.402;16.678;2024-03-06T00:07:17;64.63;;;26.97;;
19343;SDS011;9808;52.402;16.678;2024-03-06T00:09:44;57.13;;;26.00;;
19343;SDS011;9808;52.402;16.678;2024-03-06T00:12:11;65.40;;;27.03;;
19343;SDS011;9808;52.402;16.678;2024-03-06T00:14:39;62.07;;;26.40;;
19343;SDS011;9808;52.402;16.678;2024-03-06T00:17:06;69.97;;;29.43;;
19343;SDS011;9808;52.402;16.678;2024-03-06T00:19:34;69.87;;;28.87;;
19343;SDS011;9808;52.402;16.678;2024-03-06T00:22:01;65.97;;;29.70;;
19343;SDS011;9808;52.402;16.678;2024-03-06T00:24:29;76.07;;;31.17;;
19343;SDS011;9808;52.402;16.678;2024-03-06T00:26:56;66.10;;;26.40;;
19343;SDS011;9808;52.402;16.678;2024-03-06T00:29:23;62.87;;;26.87;;
19343;SDS011;9808;52.402;16.678;2024-03-06T00:31:50;69.07;;;27.23;;
19343;SDS011;9808;52.402;16.678;2024-03-06T00:34:18;66.10;;;27.83;;
19343;SDS011;9808;52.402;16.678;2024-03-06T00:36:45;60.33;;;26.03;;
19343;SDS011;9808;52.402;16.678;2024-03-06T00:39:12;59.17;;;25.27;;
19343;SDS011;9808;52.402;16.678;2024-03-06T00:41:41;63.17;;;25.60;;
19343;SDS011;9808;52.402;16.678;2024-03-06T00:44:08;59.87;;;24.47;;
19343;SDS011;9808;52.402;16.678;2024-03-06T00:46:35;58.13;;;25.40;;
19343;SDS011;9808;52.402;16.678;2024-03-06T00:49:03;57.57;;;26.07;;
19343;SDS011;9808;52.402;16.678;2024-03-06T00:51:30;59.60;;;25.37;;
19343;SDS011;9808;52.402;16.678;2024-03-06T00:54:09;62.47;;;26.00;;
19343;SDS011;9808;52.402;16.678;2024-03-06T00:56:37;61.53;;;25.13;;
19343;SDS011;9808;52.402;16.678;2024-03-06T00:59:05;68.23;;;27.00;;
19343;SDS011;9808;52.402;16.678;2024-03-06T01:01:33;57.57;;;25.43;;
19343;SDS011;9808;52.402;16.678;2024-03-06T01:04:00;58.47;;;25.73;;
19343;SDS011;9808;52.402;16.678;2024-03-06T01:06:27;60.77;;;24.63;;
19343;SDS011;9808;52.402;16.678;2024-03-06T01:08:55;63.93;;;27.27;;
19343;SDS011;9808;52.402;16.678;2024-03-06T01:11:23;62.20;;;25.97;;
19343;SDS011;9808;52.402;16.678;2024-03-06T01:13:50;63.23;;;26.47;;
19343;SDS011;9808;52.402;16.678;2024-03-06T01:16:17;59.17;;;25.50;;
19343;SDS011;9808;52.402;16.678;2024-03-06T01:18:45;56.33;;;23.53;;
19343;SDS011;9808;52.402;16.678;2024-03-06T01:21:12;59.93;;;25.63;;
19343;SDS011;9808;52.402;16.678;2024-03-06T01:23:40;60.33;;;25.13;;
19343;SDS011;9808;52.402;16.678;2024-03-06T01:26:07;57.03;;;24.83;;
19343;SDS011;9808;52.402;16.678;2024-03-06T01:28:34;58.87;;;24.73;;
19343;SDS011;9808;52.402;16.678;2024-03-06T01:31:03;56.73;;;24.67;;
19343;SDS011;9808;52.402;16.678;2024-03-06T01:33:30;54.77;;;24.77;;
19343;SDS011;9808;52.402;16.678;2024-03-06T01:35:57;53.83;;;24.47;;
19343;SDS011;9808;52.402;16.678;2024-03-06T01:38:24;54.53;;;24.40;;
19343;SDS011;9808;52.402;16.678;2024-03-06T01:40:51;55.00;;;23.50;;
19343;SDS011;9808;52.402;16.678;2024-03-06T01:43:20;57.37;;;24.10;;
19343;SDS011;9808;52.402;16.678;2024-03-06T01:45:51;58.70;;;24.10;;
19343;SDS011;9808;52.402;16.678;2024-03-06T01:48:23;57.93;;;24.80;;
19343;SDS011;9808;52.402;16.678;2024-03-06T01:50:52;54.87;;;24.50;;
19343;SDS011;9808;52.402;16.678;2024-03-06T01:53:20;58.80;;;25.90;;
19343;SDS011;9808;52.402;16.678;2024-03-06T01:55:47;57.27;;;24.73;;
19343;SDS011;9808;52.402;16.678;2024-03-06T01:58:15;58.57;;;25.93;;
19343;SDS011;9808;52.402;16.678;2024-03-06T02:00:42;76.40;;;28.53;;
19343;SDS011;9808;52.402;16.678;2024-03-06T02:03:10;68.20;;;27.97;;
19343;SDS011;9808;52.402;16.678;2024-03-06T02:05:38;62.20;;;25.93;;
19343;SDS011;9808;52.402;16.678;2024-03-06T02:08:05;62.67;;;25.40;;
19343;SDS011;9808;52.402;16.678;2024-03-06T02:10:34;59.17;;;25.87;;
19343;SDS011;9808;52.402;16.678;2024-03-06T02:13:01;58.70;;;25.73;;
19343;SDS011;9808;52.402;16.678;2024-03-06T02:15:28;61.40;;;26.13;;
19343;SDS011;9808;52.402;16.678;2024-03-06T02:17:55;59.37;;;25.27;;
19343;SDS011;9808;52.402;16.678;2024-03-06T02:20:23;70.30;;;28.80;;
19343;SDS011;9808;52.402;16.678;2024-03-06T02:22:51;63.67;;;27.77;;
19343;SDS011;9808;52.402;16.678;2024-03-06T02:25:18;59.83;;;26.37;;
19343;SDS011;9808;52.402;16.678;2024-03-06T02:27:46;62.47;;;26.73;;
19343;SDS011;9808;52.402;16.678;2024-03-06T02:30:19;63.80;;;26.43;;
19343;SDS011;9808;52.402;16.678;2024-03-06T02:32:49;60.93;;;26.37;;
19343;SDS011;9808;52.402;16.678;2024-03-06T02:35:16;57.33;;;24.87;;
19343;SDS011;9808;52.402;16.678;2024-03-06T02:37:44;60.00;;;24.63;;
19343;SDS011;9808;52.402;16.678;2024-03-06T02:40:11;55.97;;;25.40;;
19343;SDS011;9808;52.402;16.678;2024-03-06T02:42:39;60.00;;;25.17;;
19343;SDS011;9808;52.402;16.678;2024-03-06T02:45:06;56.13;;;24.67;;
19343;SDS011;9808;52.402;16.678;2024-03-06T02:47:34;51.40;;;23.10;;
19343;SDS011;9808;52.402;16.678;2024-03-06T02:50:01;55.17;;;24.83;;
19343;SDS011;9808;52.402;16.678;2024-03-06T02:52:29;50.60;;;24.43;;
19343;SDS011;9808;52.402;16.678;2024-03-06T02:54:56;56.87;;;25.20;;
19343;SDS011;9808;52.402;16.678;2024-03-06T02:57:26;57.73;;;28.27;;
19343;SDS011;9808;52.402;16.678;2024-03-06T02:59:57;61.57;;;26.00;;
19343;SDS011;9808;52.402;16.678;2024-03-06T03:02:25;48.07;;;25.03;;
19343;SDS011;9808;52.402;16.678;2024-03-06T03:04:52;53.20;;;26.73;;
19343;SDS011;9808;52.402;16.678;2024-03-06T03:07:19;55.23;;;25.90;;
19343;SDS011;9808;52.402;16.678;2024-03-06T03:09:47;56.17;;;25.00;;
19343;SDS011;9808;52.402;16.678;2024-03-06T03:12:14;54.97;;;24.43;;
19343;SDS011;9808;52.402;16.678;2024-03-06T03:14:42;48.70;;;23.33;;
19343;SDS011;9808;52.402;16.678;2024-03-06T03:17:09;50.00;;;23.03;;
19343;SDS011;9808;52.402;16.678;2024-03-06T03:19:37;48.70;;;21.93;;
19343;SDS011;9808;52.402;16.678;2024-03-06T03:22:06;50.20;;;21.20;;
19343;SDS011;9808;52.402;16.678;2024-03-06T03:24:35;46.80;;;21.87;;
19343;SDS011;9808;52.402;16.678;2024-03-06T03:27:03;47.70;;;21.53;;
19343;SDS011;9808;52.402;16.678;2024-03-06T03:29:30;50.60;;;24.17;;
19343;SDS011;9808;52.402;16.678;2024-03-06T03:31:57;51.50;;;22.87;;
19343;SDS011;9808;52.402;16.678;2024-03-06T03:34:25;46.63;;;22.13;;
19343;SDS011;9808;52.402;16.678;2024-03-06T03:36:52;49.23;;;22.87;;
19343;SDS011;9808;52.402;16.678;2024-03-06T03:39:19;52.90;;;23.63;;
19343;SDS011;9808;52.402;16.678;2024-03-06T03:41:48;49.40;;;22.23;;
19343;SDS011;9808;52.402;16.678;2024-03-06T03:44:16;40.47;;;19.87;;
19343;SDS011;9808;52.402;16.678;2024-03-06T03:46:45;40.13;;;19.27;;
19343;SDS011;9808;52.402;16.678;2024-03-06T03:49:12;43.40;;;20.50;;
19343;SDS011;9808;52.402;16.678;2024-03-06T03:51:40;42.90;;;19.10;;
19343;SDS011;9808;52.402;16.678;2024-03-06T03:54:07;39.10;;;18.53;;
19343;SDS011;9808;52.402;16.678;2024-03-06T03:56:35;35.17;;;17.33;;
19343;SDS011;9808;52.402;16.678;2024-03-06T03:59:02;36.77;;;17.80;;
19343;SDS011;9808;52.402;16.678;2024-03-06T04:01:29;43.57;;;18.67;;
19343;SDS011;9808;52.402;16.678;2024-03-06T04:03:57;34.97;;;16.73;;
19343;SDS011;9808;52.402;16.678;2024-03-06T04:06:24;42.77;;;18.93;;
19343;SDS011;9808;52.402;16.678;2024-03-06T04:08:51;38.57;;;16.93;;
19343;SDS011;9808;52.402;16.678;2024-03-06T04:11:18;43.47;;;17.33;;
19343;SDS011;9808;52.402;16.678;2024-03-06T04:13:46;33.33;;;17.00;;
19343;SDS011;9808;52.402;16.678;2024-03-06T04:16:16;34.20;;;16.97;;
19343;SDS011;9808;52.402;16.678;2024-03-06T04:18:44;34.40;;;16.50;;
19343;SDS011;9808;52.402;16.678;2024-03-06T04:21:12;34.23;;;15.83;;
19343;SDS011;9808;52.402;16.678;2024-03-06T04:23:41;34.67;;;14.67;;
19343;SDS011;9808;52.402;16.678;2024-03-06T04:26:08;37.73;;;15.97;;
19343;SDS011;9808;52.402;16.678;2024-03-06T04:28:35;30.70;;;14.83;;
19343;SDS011;9808;52.402;16.678;2024-03-06T04:31:03;29.23;;;14.20;;
19343;SDS011;9808;52.402;16.678;2024-03-06T04:33:30;30.13;;;13.87;;
19343;SDS011;9808;52.402;16.678;2024-03-06T04:35:57;32.07;;;14.50;;
19343;SDS011;9808;52.402;16.678;2024-03-06T04:38:24;30.23;;;14.50;;
19343;SDS011;9808;52.402;16.678;2024-03-06T04:40:51;29.17;;;15.47;;
19343;SDS011;9808;52.402;16.678;2024-03-06T04:43:18;44.80;;;16.20;;
19343;SDS011;9808;52.402;16.678;2024-03-06T04:45:46;36.10;;;16.87;;
19343;SDS011;9808;52.402;16.678;2024-03-06T04:48:13;32.57;;;14.67;;
19343;SDS011;9808;52.402;16.678;2024-03-06T04:50:40;37.50;;;14.63;;
19343;SDS011;9808;52.402;16.678;2024-03-06T04:53:08;30.90;;;13.43;;
19343;SDS011;9808;52.402;16.678;2024-03-06T04:55:37;30.87;;;13.70;;
19343;SDS011;9808;52.402;16.678;2024-03-06T04:58:05;30.87;;;13.13;;
19343;SDS011;9808;52.402;16.678;2024-03-06T05:00:32;30.37;;;12.97;;
19343;SDS011;9808;52.402;16.678;2024-03-06T05:02:59;34.17;;;14.67;;
19343;SDS011;9808;52.402;16.678;2024-03-06T05:05:44;35.70;;;14.97;;
19343;SDS011;9808;52.402;16.678;2024-03-06T05:08:29;46.73;;;15.13;;
19343;SDS011;9808;52.402;16.678;2024-03-06T05:11:13;55.53;;;15.90;;
19343;SDS011;9808;52.402;16.678;2024-03-06T05:13:59;42.80;;;16.80;;
19343;SDS011;9808;52.402;16.678;2024-03-06T05:16:44;44.67;;;15.77;;
19343;SDS011;9808;52.402;16.678;2024-03-06T05:19:28;48.23;;;17.00;;
19343;SDS011;9808;52.402;16.678;2024-03-06T05:22:16;41.83;;;16.37;;
19343;SDS011;9808;52.402;16.678;2024-03-06T05:25:01;55.87;;;18.10;;
19343;SDS011;9808;52.402;16.678;2024-03-06T05:27:46;37.67;;;16.33;;
19343;SDS011;9808;52.402;16.678;2024-03-06T05:30:31;56.73;;;18.27;;
19343;SDS011;9808;52.402;16.678;2024-03-06T05:33:15;54.87;;;17.87;;
19343;SDS011;9808;52.402;16.678;2024-03-06T05:36:00;45.83;;;17.13;;
19343;SDS011;9808;52.402;16.678;2024-03-06T05:38:45;43.80;;;16.73;;
19343;SDS011;9808;52.402;16.678;2024-03-06T05:41:30;66.83;;;17.87;;
19343;SDS011;9808;52.402;16.678;2024-03-06T05:44:15;41.63;;;16.33;;
19343;SDS011;9808;52.402;16.678;2024-03-06T05:47:00;39.93;;;17.20;;
19343;SDS011;9808;52.402;16.678;2024-03-06T05:49:44;38.30;;;17.43;;
19343;SDS011;9808;52.402;16.678;2024-03-06T05:52:29;39.23;;;16.57;;
19343;SDS011;9808;52.402;16.678;2024-03-06T05:55:13;43.03;;;17.20;;
19343;SDS011;9808;52.402;16.678;2024-03-06T05:57:58;41.90;;;16.50;;
19343;SDS011;9808;52.402;16.678;2024-03-06T06:00:39;63.13;;;16.30;;
19343;SDS011;9808;52.402;16.678;2024-03-06T06:03:07;38.27;;;17.33;;
19343;SDS011;9808;52.402;16.678;2024-03-06T06:05:38;39.87;;;17.57;;
19343;SDS011;9808;52.402;16.678;2024-03-06T06:08:06;38.60;;;16.77;;
19343;SDS011;9808;52.402;16.678;2024-03-06T06:10:34;39.90;;;17.97;;
19343;SDS011;9808;52.402;16.678;2024-03-06T06:13:01;42.60;;;16.83;;
19343;SDS011;9808;52.402;16.678;2024-03-06T06:15:31;55.30;;;18.80;;
19343;SDS011;9808;52.402;16.678;2024-03-06T06:17:58;74.50;;;20.37;;
19343;SDS011;9808;52.402;16.678;2024-03-06T06:20:26;59.63;;;19.63;;
19343;SDS011;9808;52.402;16.678;2024-03-06T06:22:53;66.37;;;20.23;;
19343;SDS011;9808;52.402;16.678;2024-03-06T06:25:21;65.93;;;20.50;;
19343;SDS011;9808;52.402;16.678;2024-03-06T06:27:48;75.67;;;21.20;;
19343;SDS011;9808;52.402;16.678;2024-03-06T06:30:16;50.60;;;19.87;;
19343;SDS011;9808;52.402;16.678;2024-03-06T06:32:43;63.93;;;20.43;;
19343;SDS011;9808;52.402;16.678;2024-03-06T06:35:11;71.87;;;19.17;;
19343;SDS011;9808;52.402;16.678;2024-03-06T06:37:40;75.37;;;18.30;;
19343;SDS011;9808;52.402;16.678;2024-03-06T06:40:07;59.90;;;18.67;;
19343;SDS011;9808;52.402;16.678;2024-03-06T06:42:36;60.17;;;19.43;;
19343;SDS011;9808;52.402;16.678;2024-03-06T06:45:04;72.00;;;19.30;;
19343;SDS011;9808;52.402;16.678;2024-03-06T06:47:36;81.27;;;19.80;;
19343;SDS011;9808;52.402;16.678;2024-03-06T06:50:03;44.23;;;18.13;;
19343;SDS011;9808;52.402;16.678;2024-03-06T06:52:32;45.43;;;18.20;;
19343;SDS011;9808;52.402;16.678;2024-03-06T06:55:00;52.03;;;19.40;;
19343;SDS011;9808;52.402;16.678;2024-03-06T06:57:27;39.77;;;19.13;;
19343;SDS011;9808;52.402;16.678;2024-03-06T06:59:54;50.87;;;21.03;;
19343;SDS011;9808;52.402;16.678;2024-03-06T07:02:21;40.77;;;18.60;;
19343;SDS011;9808;52.402;16.678;2024-03-06T07:04:49;41.23;;;19.23;;
19343;SDS011;9808;52.402;16.678;2024-03-06T07:07:16;36.30;;;18.97;;
19343;SDS011;9808;52.402;16.678;2024-03-06T07:09:43;45.03;;;19.63;;
19343;SDS011;9808;52.402;16.678;2024-03-06T07:12:10;40.17;;;19.77;;
19343;SDS011;9808;52.402;16.678;2024-03-06T07:14:38;39.67;;;19.87;;
19343;SDS011;9808;52.402;16.678;2024-03-06T07:17:05;40.10;;;20.23;;
19343;SDS011;9808;52.402;16.678;2024-03-06T07:19:32;43.73;;;19.77;;
19343;SDS011;9808;52.402;16.678;2024-03-06T07:22:00;40.03;;;20.03;;
19343;SDS011;9808;52.402;16.678;2024-03-06T07:24:27;45.63;;;20.17;;
19343;SDS011;9808;52.402;16.678;2024-03-06T07:26:54;42.40;;;20.33;;
19343;SDS011;9808;52.402;16.678;2024-03-06T07:29:22;65.57;;;21.00;;
19343;SDS011;9808;52.402;16.678;2024-03-06T07:31:49;49.33;;;21.67;;
19343;SDS011;9808;52.402;16.678;2024-03-06T07:34:16;47.00;;;21.23;;
19343;SDS011;9808;52.402;16.678;2024-03-06T07:36:44;48.67;;;21.83;;
19343;SDS011;9808;52.402;16.678;2024-03-06T07:39:12;52.63;;;22.37;;
19343;SDS011;9808;52.402;16.678;2024-03-06T07:41:40;43.93;;;21.20;;
19343;SDS011;9808;52.402;16.678;2024-03-06T07:44:08;58.90;;;22.50;;
19343;SDS011;9808;52.402;16.678;2024-03-06T07:46:35;49.57;;;22.97;;
19343;SDS011;9808;52.402;16.678;2024-03-06T07:49:02;60.00;;;25.40;;
19343;SDS011;9808;52.402;16.678;2024-03-06T07:51:34;78.23;;;30.30;;
19343;SDS011;9808;52.402;16.678;2024-03-06T07:54:03;81.60;;;32.77;;
19343;SDS011;9808;52.402;16.678;2024-03-06T07:56:30;75.17;;;31.77;;
19343;SDS011;9808;52.402;16.678;2024-03-06T07:58:58;78.63;;;30.60;;
19343;SDS011;9808;52.402;16.678;2024-03-06T08:01:25;64.40;;;28.73;;
19343;SDS011;9808;52.402;16.678;2024-03-06T08:03:55;79.90;;;31.30;;
19343;SDS011;9808;52.402;16.678;2024-03-06T08:06:23;77.30;;;25.90;;
19343;SDS011;9808;52.402;16.678;2024-03-06T08:08:50;65.40;;;26.00;;
19343;SDS011;9808;52.402;16.678;2024-03-06T08:11:18;76.97;;;27.83;;
19343;SDS011;9808;52.402;16.678;2024-03-06T08:13:48;74.10;;;30.57;;
19343;SDS011;9808;52.402;16.678;2024-03-06T08:16:16;70.57;;;26.67;;
19343;SDS011;9808;52.402;16.678;2024-03-06T08:18:43;65.13;;;26.70;;
19343;SDS011;9808;52.402;16.678;2024-03-06T08:21:11;63.77;;;25.33;;
19343;SDS011;9808;52.402;16.678;2024-03-06T08:23:38;55.43;;;24.00;;
19343;SDS011;9808;52.402;16.678;2024-03-06T08:26:05;57.93;;;23.70;;
19343;SDS011;9808;52.402;16.678;2024-03-06T08:28:32;56.97;;;24.10;;
19343;SDS011;9808;52.402;16.678;2024-03-06T08:31:00;51.77;;;22.43;;
19343;SDS011;9808;52.402;16.678;2024-03-06T08:33:27;59.37;;;23.80;;
19343;SDS011;9808;52.402;16.678;2024-03-06T08:35:55;59.87;;;23.07;;
19343;SDS011;9808;52.402;16.678;2024-03-06T08:38:22;55.47;;;21.80;;
19343;SDS011;9808;52.402;16.678;2024-03-06T08:40:49;54.77;;;23.50;;
19343;SDS011;9808;52.402;16.678;2024-03-06T08:43:16;61.87;;;23.97;;
19343;SDS011;9808;52.402;16.678;2024-03-06T08:45:45;61.17;;;23.30;;
19343;SDS011;9808;52.402;16.678;2024-03-06T08:48:12;51.50;;;22.00;;
19343;SDS011;9808;52.402;16.678;2024-03-06T08:50:40;55.50;;;22.13;;
19343;SDS011;9808;52.402;16.678;2024-03-06T08:53:07;53.53;;;22.70;;
19343;SDS011;9808;52.402;16.678;2024-03-06T08:55:35;51.13;;;22.50;;
19343;SDS011;9808;52.402;16.678;2024-03-06T08:58:03;52.50;;;22.47;;
19343;SDS011;9808;52.402;16.678;2024-03-06T09:00:30;48.83;;;21.40;;
19343;SDS011;9808;52.402;16.678;2024-03-06T09:02:57;48.77;;;21.40;;
19343;SDS011;9808;52.402;16.678;2024-03-06T09:05:25;53.97;;;21.80;;
19343;SDS011;9808;52.402;16.678;2024-03-06T09:07:52;52.37;;;21.70;;
19343;SDS011;9808;52.402;16.678;2024-03-06T09:10:20;52.90;;;22.27;;
19343;SDS011;9808;52.402;16.678;2024-03-06T09:12:47;49.97;;;21.60;;
19343;SDS011;9808;52.402;16.678;2024-03-06T09:15:14;53.03;;;22.80;;
19343;SDS011;9808;52.402;16.678;2024-03-06T09:17:42;50.33;;;21.23;;
19343;SDS011;9808;52.402;16.678;2024-03-06T09:20:11;44.93;;;20.70;;
19343;SDS011;9808;52.402;16.678;2024-03-06T09:22:40;54.50;;;22.53;;
19343;SDS011;9808;52.402;16.678;2024-03-06T09:25:08;58.90;;;22.20;;
19343;SDS011;9808;52.402;16.678;2024-03-06T09:27:35;60.07;;;23.20;;
19343;SDS011;9808;52.402;16.678;2024-03-06T09:30:03;47.33;;;20.60;;
19343;SDS011;9808;52.402;16.678;2024-03-06T09:32:30;46.83;;;22.40;;
19343;SDS011;9808;52.402;16.678;2024-03-06T09:34:58;50.90;;;21.23;;
19343;SDS011;9808;52.402;16.678;2024-03-06T09:37:26;48.17;;;21.03;;
19343;SDS011;9808;52.402;16.678;2024-03-06T09:39:54;49.47;;;21.00;;
19343;SDS011;9808;52.402;16.678;2024-03-06T09:42:23;48.50;;;19.90;;
19343;SDS011;9808;52.402;16.678;2024-03-06T09:44:50;50.00;;;20.23;;
19343;SDS011;9808;52.402;16.678;2024-03-06T09:47:19;49.60;;;20.93;;
19343;SDS011;9808;52.402;16.678;2024-03-06T09:49:50;46.87;;;19.03;;
19343;SDS011;9808;52.402;16.678;2024-03-06T09:52:19;52.27;;;21.80;;
19343;SDS011;9808;52.402;16.678;2024-03-06T09:54:47;46.20;;;20.63;;
19343;SDS011;9808;52.402;16.678;2024-03-06T09:57:14;46.60;;;20.00;;
19343;SDS011;9808;52.402;16.678;2024-03-06T09:59:42;44.57;;;19.97;;
19343;SDS011;9808;52.402;16.678;2024-03-06T10:02:16;47.13;;;19.97;;
19343;SDS011;9808;52.402;16.678;2024-03-06T10:04:45;42.10;;;17.63;;
19343;SDS011;9808;52.402;16.678;2024-03-06T10:07:13;47.30;;;19.83;;
19343;SDS011;9808;52.402;16.678;2024-03-06T10:09:40;41.50;;;19.00;;
19343;SDS011;9808;52.402;16.678;2024-03-06T10:12:07;45.00;;;19.40;;
19343;SDS011;9808;52.402;16.678;2024-03-06T10:14:35;46.90;;;20.63;;
19343;SDS011;9808;52.402;16.678;2024-03-06T10:17:03;40.77;;;19.33;;
19343;SDS011;9808;52.402;16.678;2024-03-06T10:19:30;45.13;;;19.40;;
19343;SDS011;9808;52.402;16.678;2024-03-06T10:21:57;43.80;;;18.47;;
19343;SDS011;9808;52.402;16.678;2024-03-06T10:24:28;42.30;;;19.60;;
19343;SDS011;9808;52.402;16.678;2024-03-06T10:26:56;42.67;;;20.07;;
19343;SDS011;9808;52.402;16.678;2024-03-06T10:29:25;46.97;;;19.57;;
19343;SDS011;9808;52.402;16.678;2024-03-06T10:31:54;42.33;;;19.57;;
19343;SDS011;9808;52.402;16.678;2024-03-06T10:34:22;44.37;;;19.97;;
19343;SDS011;9808;52.402;16.678;2024-03-06T10:36:56;43.30;;;20.67;;
19343;SDS011;9808;52.402;16.678;2024-03-06T10:39:24;48.33;;;19.80;;
19343;SDS011;9808;52.402;16.678;2024-03-06T10:41:54;42.73;;;19.27;;
19343;SDS011;9808;52.402;16.678;2024-03-06T10:44:26;44.53;;;19.80;;
19343;SDS011;9808;52.402;16.678;2024-03-06T10:47:00;43.27;;;20.13;;
19343;SDS011;9808;52.402;16.678;2024-03-06T10:49:28;48.17;;;21.03;;
19343;SDS011;9808;52.402;16.678;2024-03-06T10:51:59;44.80;;;20.67;;
19343;SDS011;9808;52.402;16.678;2024-03-06T10:54:27;47.87;;;20.97;;
19343;SDS011;9808;52.402;16.678;2024-03-06T10:56:56;45.70;;;21.03;;
19343;SDS011;9808;52.402;16.678;2024-03-06T10:59:24;46.10;;;21.13;;
19343;SDS011;9808;52.402;16.678;2024-03-06T11:01:55;58.53;;;21.53;;
19343;SDS011;9808;52.402;16.678;2024-03-06T11:04:26;46.63;;;21.87;;
19343;SDS011;9808;52.402;16.678;2024-03-06T11:07:03;50.53;;;21.97;;
19343;SDS011;9808;52.402;16.678;2024-03-06T11:09:34;45.73;;;21.73;;
19343;SDS011;9808;52.402;16.678;2024-03-06T11:12:02;48.70;;;22.37;;
19343;SDS011;9808;52.402;16.678;2024-03-06T11:14:30;44.73;;;20.77;;
19343;SDS011;9808;52.402;16.678;2024-03-06T11:19:29;46.83;;;20.97;;
19343;SDS011;9808;52.402;16.678;2024-03-06T11:21:57;43.80;;;20.47;;
19343;SDS011;9808;52.402;16.678;2024-03-06T11:24:31;48.50;;;20.70;;
19343;SDS011;9808;52.402;16.678;2024-03-06T11:29:32;49.93;;;21.17;;
19343;SDS011;9808;52.402;16.678;2024-03-06T11:32:17;42.20;;;19.07;;
19343;SDS011;9808;52.402;16.678;2024-03-06T11:34:44;46.03;;;20.87;;
19343;SDS011;9808;52.402;16.678;2024-03-06T11:37:11;44.63;;;21.73;;
19343;SDS011;9808;52.402;16.678;2024-03-06T11:39:39;48.00;;;22.40;;
19343;SDS011;9808;52.402;16.678;2024-03-06T11:42:08;48.67;;;22.33;;
19343;SDS011;9808;52.402;16.678;2024-03-06T11:44:35;50.90;;;21.73;;
19343;SDS011;9808;52.402;16.678;2024-03-06T11:47:03;52.67;;;23.00;;
19343;SDS011;9808;52.402;16.678;2024-03-06T11:49:32;60.80;;;23.17;;
19343;SDS011;9808;52.402;16.678;2024-03-06T11:52:04;50.00;;;21.97;;
19343;SDS011;9808;52.402;16.678;2024-03-06T11:54:34;46.10;;;21.90;;
19343;SDS011;9808;52.402;16.678;2024-03-06T11:57:02;54.30;;;22.83;;
19343;SDS011;9808;52.402;16.678;2024-03-06T11:59:30;55.40;;;23.50;;
19343;SDS011;9808;52.402;16.678;2024-03-06T12:01:59;53.47;;;21.97;;
19343;SDS011;9808;52.402;16.678;2024-03-06T12:04:35;51.70;;;21.87;;
19343;SDS011;9808;52.402;16.678;2024-03-06T12:07:06;52.20;;;22.43;;
19343;SDS011;9808;52.402;16.678;2024-03-06T12:09:35;51.17;;;21.63;;
19343;SDS011;9808;52.402;16.678;2024-03-06T12:12:07;53.73;;;21.70;;
19343;SDS011;9808;52.402;16.678;2024-03-06T12:14:36;50.03;;;21.17;;
19343;SDS011;9808;52.402;16.678;2024-03-06T12:17:10;48.50;;;19.53;;
19343;SDS011;9808;52.402;16.678;2024-03-06T12:19:39;43.57;;;18.63;;
19343;SDS011;9808;52.402;16.678;2024-03-06T12:22:10;43.13;;;19.20;;
19343;SDS011;9808;52.402;16.678;2024-03-06T12:24:37;44.10;;;19.03;;
19343;SDS011;9808;52.402;16.678;2024-03-06T12:27:06;47.10;;;19.27;;
19343;SDS011;9808;52.402;16.678;2024-03-06T12:29:34;40.43;;;18.33;;
19343;SDS011;9808;52.402;16.678;2024-03-06T12:32:02;37.87;;;18.67;;
19343;SDS011;9808;52.402;16.678;2024-03-06T12:34:29;39.20;;;18.83;;
19343;SDS011;9808;52.402;16.678;2024-03-06T12:37:18;41.23;;;18.20;;
19343;SDS011;9808;52.402;16.678;2024-03-06T12:39:45;42.20;;;19.30;;
19343;SDS011;9808;52.402;16.678;2024-03-06T12:42:12;44.10;;;19.07;;
19343;SDS011;9808;52.402;16.678;2024-03-06T12:44:39;45.50;;;20.63;;
19343;SDS011;9808;52.402;16.678;2024-03-06T12:47:07;44.23;;;20.33;;
19343;SDS011;9808;52.402;16.678;2024-03-06T12:49:34;45.77;;;21.30;;
19343;SDS011;9808;52.402;16.678;2024-03-06T12:52:01;49.03;;;20.90;;
19343;SDS011;9808;52.402;16.678;2024-03-06T12:54:31;45.20;;;19.30;;
19343;SDS011;9808;52.402;16.678;2024-03-06T12:56:58;40.63;;;19.37;;
19343;SDS011;9808;52.402;16.678;2024-03-06T12:59:25;43.33;;;21.13;;
19343;SDS011;9808;52.402;16.678;2024-03-06T13:01:53;46.03;;;21.57;;
19343;SDS011;9808;52.402;16.678;2024-03-06T13:04:20;50.40;;;21.17;;
19343;SDS011;9808;52.402;16.678;2024-03-06T13:06:48;48.67;;;21.17;;
19343;SDS011;9808;52.402;16.678;2024-03-06T13:09:15;47.07;;;20.80;;
19343;SDS011;9808;52.402;16.678;2024-03-06T13:11:42;48.20;;;20.60;;
19343;SDS011;9808;52.402;16.678;2024-03-06T13:14:09;48.83;;;23.20;;
19343;SDS011;9808;52.402;16.678;2024-03-06T13:16:38;48.80;;;21.47;;
19343;SDS011;9808;52.402;16.678;2024-03-06T13:19:06;49.37;;;21.30;;
19343;SDS011;9808;52.402;16.678;2024-03-06T13:21:34;50.20;;;22.73;;
19343;SDS011;9808;52.402;16.678;2024-03-06T13:24:02;49.97;;;23.33;;
19343;SDS011;9808;52.402;16.678;2024-03-06T13:26:29;50.67;;;23.73;;
19343;SDS011;9808;52.402;16.678;2024-03-06T13:28:57;46.73;;;21.57;;
19343;SDS011;9808;52.402;16.678;2024-03-06T13:31:26;54.13;;;23.87;;
19343;SDS011;9808;52.402;16.678;2024-03-06T13:33:53;49.50;;;22.57;;
19343;SDS011;9808;52.402;16.678;2024-03-06T13:36:20;45.27;;;22.33;;
19343;SDS011;9808;52.402;16.678;2024-03-06T13:38:49;54.60;;;22.63;;
19343;SDS011;9808;52.402;16.678;2024-03-06T13:41:16;51.20;;;21.00;;
19343;SDS011;9808;52.402;16.678;2024-03-06T13:43:43;47.13;;;21.33;;
19343;SDS011;9808;52.402;16.678;2024-03-06T13:46:10;45.80;;;21.60;;
19343;SDS011;9808;52.402;16.678;2024-03-06T13:48:37;50.43;;;21.67;;
19343;SDS011;9808;52.402;16.678;2024-03-06T13:51:05;49.17;;;22.40;;
19343;SDS011;9808;52.402;16.678;2024-03-06T13:53:32;50.57;;;22.73;;
19343;SDS011;9808;52.402;16.678;2024-03-06T13:55:59;53.90;;;23.07;;
19343;SDS011;9808;52.402;16.678;2024-03-06T13:58:27;48.80;;;21.80;;
19343;SDS011;9808;52.402;16.678;2024-03-06T14:00:54;53.83;;;22.50;;
19343;SDS011;9808;52.402;16.678;2024-03-06T14:03:21;51.83;;;23.63;;
19343;SDS011;9808;52.402;16.678;2024-03-06T14:05:48;51.23;;;23.97;;
19343;SDS011;9808;52.402;16.678;2024-03-06T14:08:15;48.10;;;22.63;;
19343;SDS011;9808;52.402;16.678;2024-03-06T14:10:43;52.07;;;23.43;;
19343;SDS011;9808;52.402;16.678;2024-03-06T14:13:12;53.07;;;23.63;;
19343;SDS011;9808;52.402;16.678;2024-03-06T14:15:40;51.60;;;23.47;;
19343;SDS011;9808;52.402;16.678;2024-03-06T14:18:07;62.60;;;24.53;;
19343;SDS011;9808;52.402;16.678;2024-03-06T14:20:34;51.97;;;23.57;;
19343;SDS011;9808;52.402;16.678;2024-03-06T14:23:03;51.20;;;22.87;;
19343;SDS011;9808;52.402;16.678;2024-03-06T14:25:30;52.70;;;23.43;;
19343;SDS011;9808;52.402;16.678;2024-03-06T14:28:02;55.93;;;23.57;;
19343;SDS011;9808;52.402;16.678;2024-03-06T14:30:30;60.27;;;25.43;;
19343;SDS011;9808;52.402;16.678;2024-03-06T14:32:57;63.13;;;26.07;;
19343;SDS011;9808;52.402;16.678;2024-03-06T14:35:24;60.17;;;25.43;;
19343;SDS011;9808;52.402;16.678;2024-03-06T14:37:52;60.57;;;26.17;;